Mediterranean Sea — WDG229 — position and weather

sailwx.info

Track history (hours):
 
Tides and Currents Weather Stations Pressure Air Temp Water Temp Dewpoint Dewpoint Depression Visibility Wind Speed Wind Dir Waves Ship Positions

Mediterranean Sea

Last reported at 2014-Nov-27 07:22 UTC. Time now 2014-Nov-27 08:18 UTC.
Position N 41°18' W 072°55'.

Length 33 m; draft 6 m.

Type: Wing in ground effect craft. MMSI: 367010390.

Date/timePositionNaut miles runAvg speedWind from/ knotsBaromVisibWave heightAir tempDewpointWater temp
2014-Nov-27 07:22N 41°18' W 072°55'0 0.0
2014-Nov-27 06:28N 41°18' W 072°55'0 0.0
2014-Nov-27 05:28N 41°18' W 072°55'0 0.0
2014-Nov-27 04:22N 41°18' W 072°55'0 0.0
2014-Nov-27 03:22N 41°18' W 072°55'0 0.0
2014-Nov-27 02:28N 41°18' W 072°55'0 0.0
2014-Nov-27 01:22N 41°18' W 072°55'0 0.0
2014-Nov-26 23:22N 41°18' W 072°55'0 0.0
2014-Nov-26 22:04N 41°18' W 072°55'0 0.0
2014-Nov-26 21:13N 41°18' W 072°55'0 0.0
2014-Nov-26 20:28N 41°18' W 072°55'0 0.0
2014-Nov-26 19:31N 41°18' W 072°55'0 0.0
2014-Nov-26 18:31N 41°18' W 072°55'0 0.0
2014-Nov-26 17:31N 41°18' W 072°55'0 0.0
2014-Nov-26 16:31N 41°18' W 072°55'0 0.0
2014-Nov-26 15:31N 41°18' W 072°55'0 0.0
2014-Nov-26 14:31N 41°18' W 072°55'0 0.0
2014-Nov-26 13:31N 41°18' W 072°55'0 0.0
2014-Nov-26 12:31N 41°18' W 072°55'0 0.0
2014-Nov-26 01:15N 41°18' W 072°54'0 0.0
2014-Nov-26 00:33N 41°18' W 072°54'0 0.0
2014-Nov-25 23:33N 41°18' W 072°54'0 0.0
2014-Nov-25 22:33N 41°18' W 072°54'0 0.0
2014-Nov-25 21:32N 41°18' W 072°54'0 0.0
2014-Nov-25 20:33N 41°18' W 072°54'0 0.0
2014-Nov-25 19:33N 41°18' W 072°54'0 0.2
2014-Nov-25 18:33N 41°17' W 072°55'6 6.0
2014-Nov-25 17:33N 41°12' W 072°56'7 7.2
2014-Nov-25 16:33N 41°08' W 073°04'7 6.7
2014-Nov-25 15:33N 41°04' W 073°12'7 7.1
2014-Nov-25 14:33N 41°02' W 073°20'7 7.3
2014-Nov-25 13:33N 40°58' W 073°29'9 7.6
2014-Nov-25 12:19N 40°54' W 073°40'6 7.6
2014-Nov-25 11:30N 40°50' W 073°46'6 6.4
2014-Nov-25 10:32N 40°48' W 073°54'5 5.6
2014-Nov-25 09:34N 40°44' W 073°58'5 4.9
2014-Nov-25 08:33N 40°40' W 074°01'2 1.6
2014-Nov-25 07:33N 40°38' W 074°03'0 0.3
2014-Nov-25 06:34N 40°39' W 074°03'0 0.1
2014-Nov-25 05:33N 40°38' W 074°03'5 4.8
2014-Nov-25 04:32N 40°39' W 074°09'7 5.1
2014-Nov-25 03:05N 40°33' W 074°15'1 0.7
2014-Nov-25 02:05N 40°32' W 074°15'6 3.6
2014-Nov-25 00:29N 40°37' W 074°12'2 2.1
2014-Nov-24 23:31N 40°39' W 074°10'0 0.0
2014-Nov-24 22:28N 40°39' W 074°10'0 0.0
2014-Nov-24 21:28N 40°39' W 074°10'0 0.0
2014-Nov-24 20:31N 40°39' W 074°10'0 0.0
2014-Nov-24 19:31N 40°39' W 074°10'0 0.0
2014-Nov-24 18:25N 40°39' W 074°10'0 0.0
2014-Nov-24 17:28N 40°39' W 074°10'0 0.0
2014-Nov-24 16:16N 40°39' W 074°10'0 0.0
2014-Nov-24 15:31N 40°39' W 074°10'0 0.0
2014-Nov-24 14:31N 40°39' W 074°10'0 0.0
2014-Nov-24 13:31N 40°39' W 074°10'0 0.0
2014-Nov-24 12:28N 40°39' W 074°10'0 0.0
2014-Nov-24 11:16N 40°39' W 074°10'0 0.0
2014-Nov-24 10:10N 40°39' W 074°10'0 0.0
2014-Nov-24 09:16N 40°39' W 074°10'1 0.4
2014-Nov-24 05:32N 40°38' W 074°12'7 7.0
2014-Nov-24 04:33N 40°32' W 074°15'0 0.0
2014-Nov-24 03:32N 40°32' W 074°15'0 0.0
2014-Nov-24 02:32N 40°32' W 074°15'0 0.1
2014-Nov-24 01:33N 40°32' W 074°15'1 0.9
2014-Nov-24 00:31N 40°33' W 074°15'6 6.6
2014-Nov-23 23:33N 40°39' W 074°11'8 8.3
2014-Nov-23 22:33N 40°41' W 074°01'7 6.9
2014-Nov-23 21:33N 40°47' W 073°56'7 6.8
2014-Nov-23 20:34N 40°49' W 073°47'9 7.7
2014-Nov-23 19:26N 40°55' W 073°40'1 1.2
2014-Nov-23 18:33N 40°56' W 073°39'1 1.3
2014-Nov-23 17:33N 40°57' W 073°37'9 8.9
2014-Nov-23 16:33N 40°60' W 073°26'9 9.4
2014-Nov-23 15:33N 41°04' W 073°15'9 9.2
2014-Nov-23 14:33N 41°08' W 073°04'9 8.9
2014-Nov-23 13:33N 41°14' W 072°55'4 3.7
2014-Nov-23 12:32N 41°18' W 072°54'0 0.0
2014-Nov-23 11:26N 41°18' W 072°54'0 0.0
2014-Nov-23 10:32N 41°18' W 072°54'0 0.0
2014-Nov-23 09:20N 41°18' W 072°54'0 0.0
2014-Nov-23 08:32N 41°18' W 072°54'0 0.0
2014-Nov-23 07:29N 41°18' W 072°54'0 0.0
2014-Nov-23 06:32N 41°18' W 072°54'0 0.0
2014-Nov-23 05:29N 41°18' W 072°54'0 0.0
2014-Nov-23 04:32N 41°18' W 072°54'0 0.0
2014-Nov-23 03:32N 41°18' W 072°54'0 0.0
2014-Nov-23 02:26N 41°18' W 072°54'0 0.0
2014-Nov-23 01:32N 41°18' W 072°54'0 0.0
2014-Nov-23 00:29N 41°18' W 072°54'0 0.3
2014-Nov-22 23:32N 41°18' W 072°55'0 0.0
2014-Nov-22 22:32N 41°18' W 072°55'0 0.0
2014-Nov-22 21:26N 41°18' W 072°55'0 0.0
2014-Nov-22 20:32N 41°18' W 072°55'0 0.0
2014-Nov-22 18:26N 41°18' W 072°55'0 0.0
2014-Nov-22 17:23N 41°18' W 072°55'0 0.5
2014-Nov-22 16:33N 41°17' W 072°55'6 6.1
2014-Nov-22 15:33N 41°11' W 072°56'7 7.4
2014-Nov-22 14:34N 41°07' W 073°04'9 7.1
2014-Nov-22 13:21N 41°03' W 073°14'6 7.0
2014-Nov-22 12:33N 41°01' W 073°21'7 7.0
2014-Nov-22 11:33N 40°58' W 073°29'16 7.4
2014-Nov-22 09:26N 40°50' W 073°47'7 6.4
2014-Nov-22 08:19N 40°47' W 073°55'3 4.1
2014-Nov-22 07:34N 40°45' W 073°58'4 4.4
2014-Nov-22 06:34N 40°41' W 074°01'3 2.8
2014-Nov-22 05:34N 40°38' W 074°03'1 1.4
2014-Nov-22 04:34N 40°39' W 074°04'6 5.7
2014-Nov-22 03:34N 40°38' W 074°12'2 1.9
2014-Nov-22 02:32N 40°36' W 074°12'7 7.0
2014-Nov-22 01:34N 40°40' W 074°04'3 2.6
2014-Nov-22 00:34N 40°39' W 074°07'2 0.8
2014-Nov-21 21:33N 40°39' W 074°10'1 0.5
2014-Nov-21 20:32N 40°39' W 074°10'0 0.0
2014-Nov-21 19:32N 40°39' W 074°10'0 0.0
2014-Nov-21 18:32N 40°39' W 074°10'0 0.0
2014-Nov-21 17:34N 40°39' W 074°10'0 0.0
2014-Nov-21 16:34N 40°39' W 074°10'0 0.0
2014-Nov-21 15:34N 40°39' W 074°10'0 0.0
2014-Nov-21 14:33N 40°39' W 074°10'0 0.0
2014-Nov-21 13:33N 40°39' W 074°10'0 0.0
2014-Nov-21 12:33N 40°38' W 074°10'0 0.0
2014-Nov-21 11:33N 40°38' W 074°10'2 0.3
2014-Nov-21 04:27N 40°37' W 074°12'2 2.3
2014-Nov-21 03:34N 40°39' W 074°10'0 0.0
2014-Nov-21 02:33N 40°39' W 074°10'0 0.0
2014-Nov-21 01:34N 40°39' W 074°10'0 0.0
2014-Nov-21 00:34N 40°39' W 074°10'0 0.0
2014-Nov-20 23:34N 40°39' W 074°10'3 0.6
2014-Nov-20 19:06N 40°36' W 074°12'3 5.2
2014-Nov-20 18:33N 40°39' W 074°10'8 8.1
2014-Nov-20 17:34N 40°43' W 074°01'5 5.1
2014-Nov-20 16:34N 40°48' W 073°59'0 0.2
2014-Nov-20 15:29N 40°48' W 073°59'1 1.1
2014-Nov-20 14:33N 40°47' W 073°60'3 3.5
2014-Nov-20 13:34N 40°44' W 073°58'6 5.8
2014-Nov-20 12:32N 40°48' W 073°52'17 5.8
2014-Nov-20 09:32N 40°57' W 073°33'5 5.4
2014-Nov-20 08:33N 40°60' W 073°27'6 5.9
2014-Nov-20 07:34N 41°01' W 073°19'7 6.3
2014-Nov-20 06:30N 41°02' W 073°10'6 6.1
2014-Nov-20 05:33N 41°03' W 073°03'6 6.2
2014-Nov-20 04:34N 41°04' W 072°55'6 6.1
2014-Nov-20 03:33N 41°05' W 072°47'6 6.4
2014-Nov-20 02:34N 41°07' W 072°39'7 7.1
2014-Nov-20 01:34N 41°09' W 072°29'8 8.4
2014-Nov-20 00:34N 41°12' W 072°19'9 9.0
2014-Nov-19 23:34N 41°14' W 072°08'9 9.1
2014-Nov-19 22:33N 41°15' W 071°56'9 9.3
2014-Nov-19 21:34N 41°17' W 071°44'9 9.0
2014-Nov-19 20:34N 41°18' W 071°32'8 7.9
2014-Nov-19 19:33N 41°23' W 071°24'7 7.2
2014-Nov-19 18:34N 41°30' W 071°21'7 6.2
2014-Nov-19 17:28N 41°37' W 071°18'6 6.1
2014-Nov-19 16:33N 41°40' W 071°12'0 0.2
2014-Nov-19 15:33N 41°40' W 071°12'0 0.0
2014-Nov-19 14:33N 41°40' W 071°12'0 0.0
2014-Nov-19 12:09N 41°40' W 071°12'0 0.0
2014-Nov-19 11:27N 41°40' W 071°12'0 0.0
2014-Nov-19 10:21N 41°40' W 071°12'0 0.0
2014-Nov-19 09:33N 41°40' W 071°12'0 0.0
2014-Nov-19 08:33N 41°40' W 071°12'0 0.0
2014-Nov-19 07:33N 41°40' W 071°12'0 0.0
2014-Nov-19 06:33N 41°40' W 071°12'0 0.0
2014-Nov-19 05:33N 41°40' W 071°12'0 0.0
2014-Nov-19 04:33N 41°40' W 071°12'0 0.0
2014-Nov-19 03:33N 41°40' W 071°12'0 0.0
2014-Nov-19 02:33N 41°40' W 071°12'0 0.0
2014-Nov-19 01:33N 41°40' W 071°12'0 0.0
2014-Nov-19 00:33N 41°40' W 071°12'0 0.0
2014-Nov-18 23:33N 41°40' W 071°12'0 0.0
2014-Nov-18 22:21N 41°40' W 071°12'0 0.0
2014-Nov-18 21:21N 41°40' W 071°12'0 0.0
2014-Nov-18 19:21N 41°40' W 071°12'0 0.0
2014-Nov-18 18:30N 41°40' W 071°12'0 0.0
2014-Nov-18 17:30N 41°40' W 071°12'0 0.0
2014-Nov-18 16:30N 41°40' W 071°12'0 0.0
2014-Nov-18 15:30N 41°40' W 071°12'0 0.0
2014-Nov-18 14:30N 41°40' W 071°12'0 0.0
2014-Nov-18 13:30N 41°40' W 071°12'0 0.0
2014-Nov-18 12:30N 41°40' W 071°12'0 0.0
2014-Nov-18 11:30N 41°40' W 071°12'0 0.0
2014-Nov-18 10:30N 41°40' W 071°12'0 0.0
2014-Nov-18 09:30N 41°40' W 071°12'0 0.0
2014-Nov-18 08:30N 41°40' W 071°12'0 0.0
2014-Nov-18 07:30N 41°40' W 071°12'0 0.0
2014-Nov-18 06:30N 41°40' W 071°12'0 0.0
2014-Nov-18 05:33N 41°40' W 071°12'0 0.0
2014-Nov-18 04:33N 41°40' W 071°12'0 0.0
2014-Nov-18 03:30N 41°40' W 071°12'0 0.0
2014-Nov-18 02:30N 41°40' W 071°12'0 0.0
2014-Nov-18 01:30N 41°40' W 071°12'0 0.0
2014-Nov-18 00:24N 41°40' W 071°12'0 0.0
2014-Nov-17 23:30N 41°40' W 071°12'0 0.0
2014-Nov-17 22:30N 41°40' W 071°12'0 0.0
2014-Nov-17 21:06N 41°40' W 071°12'0 0.0
2014-Nov-17 20:30N 41°40' W 071°12'0 0.0
2014-Nov-17 19:30N 41°40' W 071°12'0 0.0
2014-Nov-17 18:30N 41°40' W 071°12'0 0.0
2014-Nov-17 17:24N 41°40' W 071°12'0 0.0
2014-Nov-17 16:30N 41°40' W 071°12'0 0.0
2014-Nov-17 15:12N 41°40' W 071°12'0 0.0
2014-Nov-17 14:30N 41°40' W 071°12'0 0.0
2014-Nov-17 13:33N 41°40' W 071°12'0 0.0
2014-Nov-17 12:33N 41°40' W 071°12'0 0.0
2014-Nov-17 11:33N 41°40' W 071°12'2 1.5
2014-Nov-17 10:25N 41°39' W 071°14'5 6.2
2014-Nov-17 09:33N 41°35' W 071°18'3 3.4
2014-Nov-17 08:33N 41°32' W 071°20'4 4.2
2014-Nov-17 07:33N 41°28' W 071°22'  
Track history (hours):
 
Tides and Currents Weather Stations Pressure Air Temp Water Temp Dewpoint Dewpoint Depression Visibility Wind Speed Wind Dir Waves Ship Positions

Mediterranean Sea

Last reported at 2014-Nov-27 07:22 UTC. Time now 2014-Nov-27 08:18 UTC.
Position N 41°18' W 072°55'.

Length 33 m; draft 6 m.

Type: Wing in ground effect craft. MMSI: 367010390.

Date/timePositionNaut miles runAvg speedWind from/ knotsBaromVisibWave heightAir tempDewpointWater temp
2014-Nov-27 07:22N 41°18' W 072°55'0 0.0
2014-Nov-27 06:28N 41°18' W 072°55'0 0.0
2014-Nov-27 05:28N 41°18' W 072°55'0 0.0
2014-Nov-27 04:22N 41°18' W 072°55'0 0.0
2014-Nov-27 03:22N 41°18' W 072°55'0 0.0
2014-Nov-27 02:28N 41°18' W 072°55'0 0.0
2014-Nov-27 01:22N 41°18' W 072°55'0 0.0
2014-Nov-26 23:22N 41°18' W 072°55'0 0.0
2014-Nov-26 22:04N 41°18' W 072°55'0 0.0
2014-Nov-26 21:13N 41°18' W 072°55'0 0.0
2014-Nov-26 20:28N 41°18' W 072°55'0 0.0
2014-Nov-26 19:31N 41°18' W 072°55'0 0.0
2014-Nov-26 18:31N 41°18' W 072°55'0 0.0
2014-Nov-26 17:31N 41°18' W 072°55'0 0.0
2014-Nov-26 16:31N 41°18' W 072°55'0 0.0
2014-Nov-26 15:31N 41°18' W 072°55'0 0.0
2014-Nov-26 14:31N 41°18' W 072°55'0 0.0
2014-Nov-26 13:31N 41°18' W 072°55'0 0.0
2014-Nov-26 12:31N 41°18' W 072°55'0 0.0
2014-Nov-26 01:15N 41°18' W 072°54'0 0.0
2014-Nov-26 00:33N 41°18' W 072°54'0 0.0
2014-Nov-25 23:33N 41°18' W 072°54'0 0.0
2014-Nov-25 22:33N 41°18' W 072°54'0 0.0
2014-Nov-25 21:32N 41°18' W 072°54'0 0.0
2014-Nov-25 20:33N 41°18' W 072°54'0 0.0
2014-Nov-25 19:33N 41°18' W 072°54'0 0.2
2014-Nov-25 18:33N 41°17' W 072°55'6 6.0
2014-Nov-25 17:33N 41°12' W 072°56'7 7.2
2014-Nov-25 16:33N 41°08' W 073°04'7 6.7
2014-Nov-25 15:33N 41°04' W 073°12'7 7.1
2014-Nov-25 14:33N 41°02' W 073°20'7 7.3
2014-Nov-25 13:33N 40°58' W 073°29'9 7.6
2014-Nov-25 12:19N 40°54' W 073°40'6 7.6
2014-Nov-25 11:30N 40°50' W 073°46'6 6.4
2014-Nov-25 10:32N 40°48' W 073°54'5 5.6
2014-Nov-25 09:34N 40°44' W 073°58'5 4.9
2014-Nov-25 08:33N 40°40' W 074°01'2 1.6
2014-Nov-25 07:33N 40°38' W 074°03'0 0.3
2014-Nov-25 06:34N 40°39' W 074°03'0 0.1
2014-Nov-25 05:33N 40°38' W 074°03'5 4.8
2014-Nov-25 04:32N 40°39' W 074°09'7 5.1
2014-Nov-25 03:05N 40°33' W 074°15'1 0.7
2014-Nov-25 02:05N 40°32' W 074°15'6 3.6
2014-Nov-25 00:29N 40°37' W 074°12'2 2.1
2014-Nov-24 23:31N 40°39' W 074°10'0 0.0
2014-Nov-24 22:28N 40°39' W 074°10'0 0.0
2014-Nov-24 21:28N 40°39' W 074°10'0 0.0
2014-Nov-24 20:31N 40°39' W 074°10'0 0.0
2014-Nov-24 19:31N 40°39' W 074°10'0 0.0
2014-Nov-24 18:25N 40°39' W 074°10'0 0.0
2014-Nov-24 17:28N 40°39' W 074°10'0 0.0
2014-Nov-24 16:16N 40°39' W 074°10'0 0.0
2014-Nov-24 15:31N 40°39' W 074°10'0 0.0
2014-Nov-24 14:31N 40°39' W 074°10'0 0.0
2014-Nov-24 13:31N 40°39' W 074°10'0 0.0
2014-Nov-24 12:28N 40°39' W 074°10'0 0.0
2014-Nov-24 11:16N 40°39' W 074°10'0 0.0
2014-Nov-24 10:10N 40°39' W 074°10'0 0.0
2014-Nov-24 09:16N 40°39' W 074°10'1 0.4
2014-Nov-24 05:32N 40°38' W 074°12'7 7.0
2014-Nov-24 04:33N 40°32' W 074°15'0 0.0
2014-Nov-24 03:32N 40°32' W 074°15'0 0.0
2014-Nov-24 02:32N 40°32' W 074°15'0 0.1
2014-Nov-24 01:33N 40°32' W 074°15'1 0.9
2014-Nov-24 00:31N 40°33' W 074°15'6 6.6
2014-Nov-23 23:33N 40°39' W 074°11'8 8.3
2014-Nov-23 22:33N 40°41' W 074°01'7 6.9
2014-Nov-23 21:33N 40°47' W 073°56'7 6.8
2014-Nov-23 20:34N 40°49' W 073°47'9 7.7
2014-Nov-23 19:26N 40°55' W 073°40'1 1.2
2014-Nov-23 18:33N 40°56' W 073°39'1 1.3
2014-Nov-23 17:33N 40°57' W 073°37'9 8.9
2014-Nov-23 16:33N 40°60' W 073°26'9 9.4
2014-Nov-23 15:33N 41°04' W 073°15'9 9.2
2014-Nov-23 14:33N 41°08' W 073°04'9 8.9
2014-Nov-23 13:33N 41°14' W 072°55'4 3.7
2014-Nov-23 12:32N 41°18' W 072°54'0 0.0
2014-Nov-23 11:26N 41°18' W 072°54'0 0.0
2014-Nov-23 10:32N 41°18' W 072°54'0 0.0
2014-Nov-23 09:20N 41°18' W 072°54'0 0.0
2014-Nov-23 08:32N 41°18' W 072°54'0 0.0
2014-Nov-23 07:29N 41°18' W 072°54'0 0.0
2014-Nov-23 06:32N 41°18' W 072°54'0 0.0
2014-Nov-23 05:29N 41°18' W 072°54'0 0.0
2014-Nov-23 04:32N 41°18' W 072°54'0 0.0
2014-Nov-23 03:32N 41°18' W 072°54'0 0.0
2014-Nov-23 02:26N 41°18' W 072°54'0 0.0
2014-Nov-23 01:32N 41°18' W 072°54'0 0.0
2014-Nov-23 00:29N 41°18' W 072°54'0 0.3
2014-Nov-22 23:32N 41°18' W 072°55'0 0.0
2014-Nov-22 22:32N 41°18' W 072°55'0 0.0
2014-Nov-22 21:26N 41°18' W 072°55'0 0.0
2014-Nov-22 20:32N 41°18' W 072°55'0 0.0
2014-Nov-22 18:26N 41°18' W 072°55'0 0.0
2014-Nov-22 17:23N 41°18' W 072°55'0 0.5
2014-Nov-22 16:33N 41°17' W 072°55'6 6.1
2014-Nov-22 15:33N 41°11' W 072°56'7 7.4
2014-Nov-22 14:34N 41°07' W 073°04'9 7.1
2014-Nov-22 13:21N 41°03' W 073°14'6 7.0
2014-Nov-22 12:33N 41°01' W 073°21'7 7.0
2014-Nov-22 11:33N 40°58' W 073°29'16 7.4
2014-Nov-22 09:26N 40°50' W 073°47'7 6.4
2014-Nov-22 08:19N 40°47' W 073°55'3 4.1
2014-Nov-22 07:34N 40°45' W 073°58'4 4.4
2014-Nov-22 06:34N 40°41' W 074°01'3 2.8
2014-Nov-22 05:34N 40°38' W 074°03'1 1.4
2014-Nov-22 04:34N 40°39' W 074°04'6 5.7
2014-Nov-22 03:34N 40°38' W 074°12'2 1.9
2014-Nov-22 02:32N 40°36' W 074°12'7 7.0
2014-Nov-22 01:34N 40°40' W 074°04'3 2.6
2014-Nov-22 00:34N 40°39' W 074°07'2 0.8
2014-Nov-21 21:33N 40°39' W 074°10'1 0.5
2014-Nov-21 20:32N 40°39' W 074°10'0 0.0
2014-Nov-21 19:32N 40°39' W 074°10'0 0.0
2014-Nov-21 18:32N 40°39' W 074°10'0 0.0
2014-Nov-21 17:34N 40°39' W 074°10'0 0.0
2014-Nov-21 16:34N 40°39' W 074°10'0 0.0
2014-Nov-21 15:34N 40°39' W 074°10'0 0.0
2014-Nov-21 14:33N 40°39' W 074°10'0 0.0
2014-Nov-21 13:33N 40°39' W 074°10'0 0.0
2014-Nov-21 12:33N 40°38' W 074°10'0 0.0
2014-Nov-21 11:33N 40°38' W 074°10'2 0.3
2014-Nov-21 04:27N 40°37' W 074°12'2 2.3
2014-Nov-21 03:34N 40°39' W 074°10'0 0.0
2014-Nov-21 02:33N 40°39' W 074°10'0 0.0
2014-Nov-21 01:34N 40°39' W 074°10'0 0.0
2014-Nov-21 00:34N 40°39' W 074°10'0 0.0
2014-Nov-20 23:34N 40°39' W 074°10'3 0.6
2014-Nov-20 19:06N 40°36' W 074°12'3 5.2
2014-Nov-20 18:33N 40°39' W 074°10'8 8.1
2014-Nov-20 17:34N 40°43' W 074°01'5 5.1
2014-Nov-20 16:34N 40°48' W 073°59'0 0.2
2014-Nov-20 15:29N 40°48' W 073°59'1 1.1
2014-Nov-20 14:33N 40°47' W 073°60'3 3.5
2014-Nov-20 13:34N 40°44' W 073°58'6 5.8
2014-Nov-20 12:32N 40°48' W 073°52'17 5.8
2014-Nov-20 09:32N 40°57' W 073°33'5 5.4
2014-Nov-20 08:33N 40°60' W 073°27'6 5.9
2014-Nov-20 07:34N 41°01' W 073°19'7 6.3
2014-Nov-20 06:30N 41°02' W 073°10'6 6.1
2014-Nov-20 05:33N 41°03' W 073°03'6 6.2
2014-Nov-20 04:34N 41°04' W 072°55'6 6.1
2014-Nov-20 03:33N 41°05' W 072°47'6 6.4
2014-Nov-20 02:34N 41°07' W 072°39'7 7.1
2014-Nov-20 01:34N 41°09' W 072°29'8 8.4
2014-Nov-20 00:34N 41°12' W 072°19'9 9.0
2014-Nov-19 23:34N 41°14' W 072°08'9 9.1
2014-Nov-19 22:33N 41°15' W 071°56'9 9.3
2014-Nov-19 21:34N 41°17' W 071°44'9 9.0
2014-Nov-19 20:34N 41°18' W 071°32'8 7.9
2014-Nov-19 19:33N 41°23' W 071°24'7 7.2
2014-Nov-19 18:34N 41°30' W 071°21'7 6.2
2014-Nov-19 17:28N 41°37' W 071°18'6 6.1
2014-Nov-19 16:33N 41°40' W 071°12'0 0.2
2014-Nov-19 15:33N 41°40' W 071°12'0 0.0
2014-Nov-19 14:33N 41°40' W 071°12'0 0.0
2014-Nov-19 12:09N 41°40' W 071°12'0 0.0
2014-Nov-19 11:27N 41°40' W 071°12'0 0.0
2014-Nov-19 10:21N 41°40' W 071°12'0 0.0
2014-Nov-19 09:33N 41°40' W 071°12'0 0.0
2014-Nov-19 08:33N 41°40' W 071°12'0 0.0
2014-Nov-19 07:33N 41°40' W 071°12'0 0.0
2014-Nov-19 06:33N 41°40' W 071°12'0 0.0
2014-Nov-19 05:33N 41°40' W 071°12'0 0.0
2014-Nov-19 04:33N 41°40' W 071°12'0 0.0
2014-Nov-19 03:33N 41°40' W 071°12'0 0.0
2014-Nov-19 02:33N 41°40' W 071°12'0 0.0
2014-Nov-19 01:33N 41°40' W 071°12'0 0.0
2014-Nov-19 00:33N 41°40' W 071°12'0 0.0
2014-Nov-18 23:33N 41°40' W 071°12'0 0.0
2014-Nov-18 22:21N 41°40' W 071°12'0 0.0
2014-Nov-18 21:21N 41°40' W 071°12'0 0.0
2014-Nov-18 19:21N 41°40' W 071°12'0 0.0
2014-Nov-18 18:30N 41°40' W 071°12'0 0.0
2014-Nov-18 17:30N 41°40' W 071°12'0 0.0
2014-Nov-18 16:30N 41°40' W 071°12'0 0.0
2014-Nov-18 15:30N 41°40' W 071°12'0 0.0
2014-Nov-18 14:30N 41°40' W 071°12'0 0.0
2014-Nov-18 13:30N 41°40' W 071°12'0 0.0
2014-Nov-18 12:30N 41°40' W 071°12'0 0.0
2014-Nov-18 11:30N 41°40' W 071°12'0 0.0
2014-Nov-18 10:30N 41°40' W 071°12'0 0.0
2014-Nov-18 09:30N 41°40' W 071°12'0 0.0
2014-Nov-18 08:30N 41°40' W 071°12'0 0.0
2014-Nov-18 07:30N 41°40' W 071°12'0 0.0
2014-Nov-18 06:30N 41°40' W 071°12'0 0.0
2014-Nov-18 05:33N 41°40' W 071°12'0 0.0
2014-Nov-18 04:33N 41°40' W 071°12'0 0.0
2014-Nov-18 03:30N 41°40' W 071°12'0 0.0
2014-Nov-18 02:30N 41°40' W 071°12'0 0.0
2014-Nov-18 01:30N 41°40' W 071°12'0 0.0
2014-Nov-18 00:24N 41°40' W 071°12'0 0.0
2014-Nov-17 23:30N 41°40' W 071°12'0 0.0
2014-Nov-17 22:30N 41°40' W 071°12'0 0.0
2014-Nov-17 21:06N 41°40' W 071°12'0 0.0
2014-Nov-17 20:30N 41°40' W 071°12'0 0.0
2014-Nov-17 19:30N 41°40' W 071°12'0 0.0
2014-Nov-17 18:30N 41°40' W 071°12'0 0.0
2014-Nov-17 17:24N 41°40' W 071°12'0 0.0
2014-Nov-17 16:30N 41°40' W 071°12'0 0.0
2014-Nov-17 15:12N 41°40' W 071°12'0 0.0
2014-Nov-17 14:30N 41°40' W 071°12'0 0.0
2014-Nov-17 13:33N 41°40' W 071°12'0 0.0
2014-Nov-17 12:33N 41°40' W 071°12'0 0.0
2014-Nov-17 11:33N 41°40' W 071°12'2 1.5
2014-Nov-17 10:25N 41°39' W 071°14'5 6.2
2014-Nov-17 09:33N 41°35' W 071°18'3 3.4
2014-Nov-17 08:33N 41°32' W 071°20'4 4.2
2014-Nov-17 07:33N 41°28' W 071°22'  

Dump ship's entire track history